createdAt,value
2022-09-28T00:05:06.961Z,8.60
2022-09-28T00:15:09.171Z,8.30
2022-09-28T00:25:11.004Z,8.40
2022-09-28T00:35:12.773Z,8.60
2022-09-28T00:45:14.650Z,8.70
2022-09-28T00:55:31.699Z,8.60
2022-09-28T01:05:36.759Z,8.50
2022-09-28T01:15:49.652Z,8.20
2022-09-28T01:26:33.316Z,8.10
2022-09-28T01:36:47.946Z,7.90
2022-09-28T01:47:19.832Z,7.90
2022-09-28T01:57:27.491Z,7.70
2022-09-28T02:08:06.532Z,7.50
2022-09-28T02:18:10.173Z,7.60
2022-09-28T02:28:14.533Z,7.50
2022-09-28T02:38:16.959Z,7.40
2022-09-28T02:48:43.741Z,7.30
2022-09-28T02:59:10.193Z,7.20
2022-09-28T03:09:19.119Z,7.10
2022-09-28T03:19:24.983Z,7.20
2022-09-28T03:29:27.295Z,7.10
2022-09-28T03:39:34.959Z,7.20
2022-09-28T03:49:37.380Z,7.30
2022-09-28T03:59:43.269Z,7.30
2022-09-28T04:09:45.100Z,7.40
2022-09-28T04:19:48.839Z,7.50
2022-09-28T04:30:13.865Z,7.60
2022-09-28T04:40:19.334Z,7.70
2022-09-28T04:50:21.670Z,7.80
2022-09-28T05:00:48.827Z,7.60
2022-09-28T05:11:08.434Z,7.50
2022-09-28T05:21:16.923Z,7.90
2022-09-28T05:31:18.932Z,8.60
2022-09-28T05:41:47.019Z,8.50
2022-09-28T05:51:48.994Z,8.20
2022-09-28T06:01:50.828Z,9.90
2022-09-28T06:11:53.152Z,10.90
2022-09-28T06:22:02.698Z,11.50
2022-09-28T06:32:07.425Z,11.90
2022-09-28T06:42:10.907Z,12.50
2022-09-28T06:52:31.491Z,11.70
2022-09-28T07:02:52.135Z,11.00
2022-09-28T07:13:39.443Z,13.10
2022-09-28T07:23:52.174Z,13.80
2022-09-28T07:33:57.579Z,12.60
2022-09-28T07:44:06.032Z,12.00
2022-09-28T07:54:09.514Z,12.80
2022-09-28T08:04:29.690Z,13.20
2022-09-28T08:14:32.399Z,14.70
2022-09-28T08:24:50.724Z,14.80
2022-09-28T08:34:52.789Z,15.20
2022-09-28T08:45:25.653Z,15.60
2022-09-28T08:55:45.658Z,15.10
2022-09-28T09:06:03.577Z,13.70
2022-09-28T09:16:38.010Z,14.80
2022-09-28T09:27:18.071Z,16.10
2022-09-28T09:37:38.684Z,15.90
2022-09-28T09:47:49.388Z,15.90
2022-09-28T09:58:22.526Z,15.80
2022-09-28T10:08:35.081Z,16.10
2022-09-28T10:18:38.110Z,16.40
2022-09-28T10:29:02.110Z,16.30
2022-09-28T10:39:05.830Z,16.40
2022-09-28T10:49:18.078Z,16.10
2022-09-28T10:59:30.882Z,16.10
2022-09-28T11:10:01.456Z,15.90
2022-09-28T11:20:27.932Z,16.00
2022-09-28T11:30:59.882Z,16.00
2022-09-28T11:41:16.946Z,16.40
2022-09-28T11:51:31.705Z,15.80
2022-09-28T12:01:44.196Z,16.20
2022-09-28T12:11:58.147Z,16.40
2022-09-28T12:22:24.056Z,15.90
2022-09-28T12:32:47.252Z,16.00
2022-09-28T12:43:16.249Z,16.20
2022-09-28T12:53:47.860Z,16.10
2022-09-28T13:03:52.730Z,15.80
2022-09-28T13:13:57.715Z,15.80
2022-09-28T13:24:20.792Z,15.50
2022-09-28T13:34:27.693Z,15.30
2022-09-28T13:44:54.851Z,15.10
2022-09-28T13:55:03.913Z,14.80
2022-09-28T14:05:24.114Z,14.60
2022-09-28T14:15:28.979Z,14.60
2022-09-28T14:25:33.200Z,14.30
2022-09-28T14:35:43.316Z,14.20
2022-09-28T14:45:45.259Z,14.00
2022-09-28T14:55:50.151Z,14.10
2022-09-28T15:05:52.404Z,14.00
2022-09-28T15:16:10.362Z,13.30
2022-09-28T15:26:47.955Z,12.80
2022-09-28T15:36:49.929Z,12.50
2022-09-28T15:47:08.611Z,12.70
2022-09-28T15:57:30.188Z,12.60
2022-09-28T16:07:39.488Z,12.50
2022-09-28T16:17:41.852Z,12.50
2022-09-28T16:27:44.898Z,12.30
2022-09-28T16:37:49.325Z,12.20
2022-09-28T16:47:51.957Z,12.30
2022-09-28T16:57:54.148Z,12.20
2022-09-28T17:08:04.327Z,12.10
2022-09-28T17:18:06.915Z,12.10
2022-09-28T17:28:20.359Z,11.90
2022-09-28T17:38:22.212Z,11.70
2022-09-28T17:48:24.031Z,11.30
2022-09-28T17:58:25.892Z,11.20
2022-09-28T18:08:27.763Z,11.30
2022-09-28T18:18:29.827Z,11.50
2022-09-28T18:28:31.692Z,11.60
2022-09-28T18:38:38.039Z,11.60
2022-09-28T18:48:40.391Z,11.40
2022-09-28T18:58:42.813Z,11.40
2022-09-28T19:08:44.920Z,11.20
2022-09-28T19:18:47.389Z,11.30
2022-09-28T19:28:49.643Z,11.30
2022-09-28T19:38:56.170Z,11.40
2022-09-28T19:49:01.645Z,11.60
2022-09-28T19:59:10.494Z,11.70
2022-09-28T20:09:12.517Z,11.90
2022-09-28T20:19:15.565Z,11.70
2022-09-28T20:29:17.543Z,11.50
2022-09-28T20:39:19.552Z,11.50
2022-09-28T20:49:21.421Z,11.20
2022-09-28T20:59:23.339Z,11.00
2022-09-28T21:09:25.272Z,10.90
2022-09-28T21:19:27.158Z,10.70
2022-09-28T21:29:29.513Z,10.80
2022-09-28T21:39:31.393Z,10.70
2022-09-28T21:49:34.674Z,10.70
2022-09-28T21:59:36.503Z,10.60
2022-09-28T22:09:38.275Z,10.50
2022-09-28T22:19:40.489Z,10.30
2022-09-28T22:29:42.885Z,10.30
2022-09-28T22:39:44.862Z,10.30
2022-09-28T22:49:46.709Z,10.10
2022-09-28T22:59:49.647Z,10.20
2022-09-28T23:09:51.511Z,10.30
2022-09-28T23:19:53.337Z,10.20
2022-09-28T23:29:56.446Z,10.20
2022-09-28T23:39:58.325Z,10.20
2022-09-28T23:50:00.208Z,10.20
